sensor_id;sensor_type;location;lat;lon;timestamp;temperature;humidity
12811;DHT22;6470;47.654;7.896;2023-07-20T00:00:06;19.70;99.90
12811;DHT22;6470;47.654;7.896;2023-07-20T00:02:32;19.60;99.90
12811;DHT22;6470;47.654;7.896;2023-07-20T00:04:57;19.50;99.90
12811;DHT22;6470;47.654;7.896;2023-07-20T00:12:16;18.30;99.90
12811;DHT22;6470;47.654;7.896;2023-07-20T00:22:00;19.20;99.90
12811;DHT22;6470;47.654;7.896;2023-07-20T00:24:27;18.70;99.90
12811;DHT22;6470;47.654;7.896;2023-07-20T00:26:53;18.90;99.90
12811;DHT22;6470;47.654;7.896;2023-07-20T00:29:18;19.20;99.90
12811;DHT22;6470;47.654;7.896;2023-07-20T00:31:44;19.00;99.90
12811;DHT22;6470;47.654;7.896;2023-07-20T00:34:10;16.20;99.90
12811;DHT22;6470;47.654;7.896;2023-07-20T00:36:35;19.00;99.90
12811;DHT22;6470;47.654;7.896;2023-07-20T00:39:01;18.90;99.90
12811;DHT22;6470;47.654;7.896;2023-07-20T00:41:27;16.00;99.90
12811;DHT22;6470;47.654;7.896;2023-07-20T00:43:55;18.30;99.90
12811;DHT22;6470;47.654;7.896;2023-07-20T00:46:23;18.70;99.90
12811;DHT22;6470;47.654;7.896;2023-07-20T00:51:16;18.10;99.90
12811;DHT22;6470;47.654;7.896;2023-07-20T00:53:42;19.20;99.90
12811;DHT22;6470;47.654;7.896;2023-07-20T00:56:08;18.80;99.90
12811;DHT22;6470;47.654;7.896;2023-07-20T00:58:34;18.30;99.90
12811;DHT22;6470;47.654;7.896;2023-07-20T01:01:00;17.70;99.90
12811;DHT22;6470;47.654;7.896;2023-07-20T01:03:26;17.40;99.90
12811;DHT22;6470;47.654;7.896;2023-07-20T01:05:58;18.50;99.90
12811;DHT22;6470;47.654;7.896;2023-07-20T01:09:15;17.20;99.90
12811;DHT22;6470;47.654;7.896;2023-07-20T01:11:41;18.40;99.90
12811;DHT22;6470;47.654;7.896;2023-07-20T01:14:08;16.80;99.90
12811;DHT22;6470;47.654;7.896;2023-07-20T01:16:34;17.40;99.90
12811;DHT22;6470;47.654;7.896;2023-07-20T01:19:00;17.60;99.90
12811;DHT22;6470;47.654;7.896;2023-07-20T01:21:32;17.10;99.90
12811;DHT22;6470;47.654;7.896;2023-07-20T01:24:30;17.00;99.90
12811;DHT22;6470;47.654;7.896;2023-07-20T01:32:36;14.60;99.90
12811;DHT22;6470;47.654;7.896;2023-07-20T01:35:05;17.30;99.90
12811;DHT22;6470;47.654;7.896;2023-07-20T01:37:32;17.50;99.90
12811;DHT22;6470;47.654;7.896;2023-07-20T01:39:58;17.00;99.90
12811;DHT22;6470;47.654;7.896;2023-07-20T01:42:24;16.40;99.90
12811;DHT22;6470;47.654;7.896;2023-07-20T01:44:53;16.70;99.90
12811;DHT22;6470;47.654;7.896;2023-07-20T01:47:19;16.30;99.90
12811;DHT22;6470;47.654;7.896;2023-07-20T01:49:45;17.10;99.90
12811;DHT22;6470;47.654;7.896;2023-07-20T01:57:03;16.40;99.90
12811;DHT22;6470;47.654;7.896;2023-07-20T01:59:29;17.00;99.90
12811;DHT22;6470;47.654;7.896;2023-07-20T02:01:55;16.70;99.90
12811;DHT22;6470;47.654;7.896;2023-07-20T02:04:21;16.10;99.90
12811;DHT22;6470;47.654;7.896;2023-07-20T02:06:46;16.40;99.90
12811;DHT22;6470;47.654;7.896;2023-07-20T02:09:12;16.00;99.90
12811;DHT22;6470;47.654;7.896;2023-07-20T02:11:38;16.80;99.90
12811;DHT22;6470;47.654;7.896;2023-07-20T02:14:03;17.40;99.90
12811;DHT22;6470;47.654;7.896;2023-07-20T02:21:22;16.90;99.90
12811;DHT22;6470;47.654;7.896;2023-07-20T02:23:48;17.00;99.90
12811;DHT22;6470;47.654;7.896;2023-07-20T02:26:14;17.10;99.90
12811;DHT22;6470;47.654;7.896;2023-07-20T02:28:40;16.60;99.90
12811;DHT22;6470;47.654;7.896;2023-07-20T02:31:06;17.10;99.90
12811;DHT22;6470;47.654;7.896;2023-07-20T02:33:32;16.90;99.90
12811;DHT22;6470;47.654;7.896;2023-07-20T02:35:58;13.50;99.90
12811;DHT22;6470;47.654;7.896;2023-07-20T02:38:24;16.00;99.90
12811;DHT22;6470;47.654;7.896;2023-07-20T02:40:50;16.50;99.90
12811;DHT22;6470;47.654;7.896;2023-07-20T02:43:16;16.20;99.90
12811;DHT22;6470;47.654;7.896;2023-07-20T02:45:41;16.10;99.90
12811;DHT22;6470;47.654;7.896;2023-07-20T02:48:08;13.30;99.90
12811;DHT22;6470;47.654;7.896;2023-07-20T02:55:27;16.30;99.90
12811;DHT22;6470;47.654;7.896;2023-07-20T02:57:52;15.80;99.90
12811;DHT22;6470;47.654;7.896;2023-07-20T03:00:18;16.40;99.90
12811;DHT22;6470;47.654;7.896;2023-07-20T03:02:45;17.20;99.90
12811;DHT22;6470;47.654;7.896;2023-07-20T03:05:13;14.10;99.90
12811;DHT22;6470;47.654;7.896;2023-07-20T03:07:39;16.30;99.90
12811;DHT22;6470;47.654;7.896;2023-07-20T03:10:05;16.00;99.90
12811;DHT22;6470;47.654;7.896;2023-07-20T03:12:35;16.90;99.90
12811;DHT22;6470;47.654;7.896;2023-07-20T03:15:04;16.60;99.90
12811;DHT22;6470;47.654;7.896;2023-07-20T03:17:30;16.30;99.90
12811;DHT22;6470;47.654;7.896;2023-07-20T03:19:56;16.70;99.90
12811;DHT22;6470;47.654;7.896;2023-07-20T03:24:49;16.00;99.90
12811;DHT22;6470;47.654;7.896;2023-07-20T03:27:15;16.70;99.90
12811;DHT22;6470;47.654;7.896;2023-07-20T03:29:41;16.40;99.90
12811;DHT22;6470;47.654;7.896;2023-07-20T03:32:07;16.20;99.90
12811;DHT22;6470;47.654;7.896;2023-07-20T03:34:32;16.50;99.90
12811;DHT22;6470;47.654;7.896;2023-07-20T03:36:58;16.10;99.90
12811;DHT22;6470;47.654;7.896;2023-07-20T03:41:50;16.40;99.90
12811;DHT22;6470;47.654;7.896;2023-07-20T03:44:16;16.00;99.90
12811;DHT22;6470;47.654;7.896;2023-07-20T03:46:42;16.10;99.90
12811;DHT22;6470;47.654;7.896;2023-07-20T03:49:07;15.90;99.90
12811;DHT22;6470;47.654;7.896;2023-07-20T03:51:34;16.20;99.90
12811;DHT22;6470;47.654;7.896;2023-07-20T03:54:00;16.00;99.90
12811;DHT22;6470;47.654;7.896;2023-07-20T03:58:52;15.80;99.90
12811;DHT22;6470;47.654;7.896;2023-07-20T04:01:18;15.90;99.90
12811;DHT22;6470;47.654;7.896;2023-07-20T04:03:44;16.60;99.90
12811;DHT22;6470;47.654;7.896;2023-07-20T04:08:36;16.10;99.90
12811;DHT22;6470;47.654;7.896;2023-07-20T04:11:02;16.20;99.90
12811;DHT22;6470;47.654;7.896;2023-07-20T04:13:28;16.10;99.90
12811;DHT22;6470;47.654;7.896;2023-07-20T04:15:54;15.30;99.90
12811;DHT22;6470;47.654;7.896;2023-07-20T04:18:20;15.90;99.90
12811;DHT22;6470;47.654;7.896;2023-07-20T04:20:46;16.30;99.90
12811;DHT22;6470;47.654;7.896;2023-07-20T04:23:12;16.20;99.90
12811;DHT22;6470;47.654;7.896;2023-07-20T04:25:39;15.60;99.90
12811;DHT22;6470;47.654;7.896;2023-07-20T04:28:08;16.30;99.90
12811;DHT22;6470;47.654;7.896;2023-07-20T04:30:35;15.80;99.90
12811;DHT22;6470;47.654;7.896;2023-07-20T04:33:05;16.00;99.90
12811;DHT22;6470;47.654;7.896;2023-07-20T04:35:52;15.70;99.90
12811;DHT22;6470;47.654;7.896;2023-07-20T04:40:46;16.60;99.90
12811;DHT22;6470;47.654;7.896;2023-07-20T04:43:13;16.10;99.90
12811;DHT22;6470;47.654;7.896;2023-07-20T04:45:39;15.80;99.90
12811;DHT22;6470;47.654;7.896;2023-07-20T04:48:08;16.00;99.90
12811;DHT22;6470;47.654;7.896;2023-07-20T04:50:35;15.90;99.90
12811;DHT22;6470;47.654;7.896;2023-07-20T04:53:01;15.60;99.90
12811;DHT22;6470;47.654;7.896;2023-07-20T04:55:27;16.20;99.90
12811;DHT22;6470;47.654;7.896;2023-07-20T04:57:53;15.60;99.90
12811;DHT22;6470;47.654;7.896;2023-07-20T05:00:19;16.00;99.90
12811;DHT22;6470;47.654;7.896;2023-07-20T05:02:47;16.30;99.90
12811;DHT22;6470;47.654;7.896;2023-07-20T05:05:15;16.20;99.90
12811;DHT22;6470;47.654;7.896;2023-07-20T05:07:41;16.90;99.90
12811;DHT22;6470;47.654;7.896;2023-07-20T05:10:07;16.70;99.90
12811;DHT22;6470;47.654;7.896;2023-07-20T05:14:59;16.80;99.90
12811;DHT22;6470;47.654;7.896;2023-07-20T05:17:24;16.70;99.90
12811;DHT22;6470;47.654;7.896;2023-07-20T05:19:50;16.70;99.90
12811;DHT22;6470;47.654;7.896;2023-07-20T05:22:16;17.50;99.90
12811;DHT22;6470;47.654;7.896;2023-07-20T05:24:42;16.90;99.90
12811;DHT22;6470;47.654;7.896;2023-07-20T05:27:08;17.00;99.90
12811;DHT22;6470;47.654;7.896;2023-07-20T05:29:34;17.30;99.90
12811;DHT22;6470;47.654;7.896;2023-07-20T05:32:00;17.20;99.90
12811;DHT22;6470;47.654;7.896;2023-07-20T05:34:25;17.40;99.90
12811;DHT22;6470;47.654;7.896;2023-07-20T05:37:09;17.50;99.90
12811;DHT22;6470;47.654;7.896;2023-07-20T05:39:35;17.40;99.90
12811;DHT22;6470;47.654;7.896;2023-07-20T05:42:06;17.40;99.90
12811;DHT22;6470;47.654;7.896;2023-07-20T05:44:31;17.40;99.90
12811;DHT22;6470;47.654;7.896;2023-07-20T05:46:57;17.40;99.90
12811;DHT22;6470;47.654;7.896;2023-07-20T05:49:23;18.60;99.90
12811;DHT22;6470;47.654;7.896;2023-07-20T05:51:48;18.20;99.90
12811;DHT22;6470;47.654;7.896;2023-07-20T05:54:14;18.40;99.90
12811;DHT22;6470;47.654;7.896;2023-07-20T05:56:40;18.80;99.90
12811;DHT22;6470;47.654;7.896;2023-07-20T05:59:05;18.20;99.90
12811;DHT22;6470;47.654;7.896;2023-07-20T06:01:32;19.20;99.90
12811;DHT22;6470;47.654;7.896;2023-07-20T06:06:24;19.20;99.90
12811;DHT22;6470;47.654;7.896;2023-07-20T06:08:49;20.10;99.90
12811;DHT22;6470;47.654;7.896;2023-07-20T06:11:15;19.50;99.90
12811;DHT22;6470;47.654;7.896;2023-07-20T06:13:41;20.70;99.90
12811;DHT22;6470;47.654;7.896;2023-07-20T06:16:09;20.00;99.90
12811;DHT22;6470;47.654;7.896;2023-07-20T06:18:34;20.00;99.90
12811;DHT22;6470;47.654;7.896;2023-07-20T06:21:00;20.40;99.90
12811;DHT22;6470;47.654;7.896;2023-07-20T06:23:26;20.10;99.90
12811;DHT22;6470;47.654;7.896;2023-07-20T06:25:51;19.70;99.90
12811;DHT22;6470;47.654;7.896;2023-07-20T06:28:17;19.40;99.90
12811;DHT22;6470;47.654;7.896;2023-07-20T06:30:43;20.00;99.90
12811;DHT22;6470;47.654;7.896;2023-07-20T06:33:09;20.70;99.90
12811;DHT22;6470;47.654;7.896;2023-07-20T06:35:35;19.90;99.90
12811;DHT22;6470;47.654;7.896;2023-07-20T06:38:01;20.70;99.90
12811;DHT22;6470;47.654;7.896;2023-07-20T06:40:28;20.70;99.90
12811;DHT22;6470;47.654;7.896;2023-07-20T06:42:54;21.10;99.90
12811;DHT22;6470;47.654;7.896;2023-07-20T06:45:19;21.30;99.90
12811;DHT22;6470;47.654;7.896;2023-07-20T06:47:45;21.50;99.90
12811;DHT22;6470;47.654;7.896;2023-07-20T06:50:11;21.40;99.90
12811;DHT22;6470;47.654;7.896;2023-07-20T06:52:37;21.60;99.90
12811;DHT22;6470;47.654;7.896;2023-07-20T06:55:03;21.90;99.90
12811;DHT22;6470;47.654;7.896;2023-07-20T06:57:29;22.40;99.90
12811;DHT22;6470;47.654;7.896;2023-07-20T06:59:55;22.60;99.90
12811;DHT22;6470;47.654;7.896;2023-07-20T07:02:20;22.20;99.90
12811;DHT22;6470;47.654;7.896;2023-07-20T07:04:46;23.00;99.90
12811;DHT22;6470;47.654;7.896;2023-07-20T07:07:15;22.80;99.90
12811;DHT22;6470;47.654;7.896;2023-07-20T07:09:41;21.60;99.90
12811;DHT22;6470;47.654;7.896;2023-07-20T07:12:07;22.50;99.90
12811;DHT22;6470;47.654;7.896;2023-07-20T07:14:33;23.40;99.90
12811;DHT22;6470;47.654;7.896;2023-07-20T07:17:00;22.70;99.90
12811;DHT22;6470;47.654;7.896;2023-07-20T07:19:25;22.80;99.90
12811;DHT22;6470;47.654;7.896;2023-07-20T07:21:51;23.30;99.90
12811;DHT22;6470;47.654;7.896;2023-07-20T07:24:17;23.30;99.90
12811;DHT22;6470;47.654;7.896;2023-07-20T07:26:43;23.20;99.90
12811;DHT22;6470;47.654;7.896;2023-07-20T07:29:09;23.50;99.90
12811;DHT22;6470;47.654;7.896;2023-07-20T07:31:35;23.20;99.90
12811;DHT22;6470;47.654;7.896;2023-07-20T07:34:02;23.00;99.90
12811;DHT22;6470;47.654;7.896;2023-07-20T07:36:28;22.80;99.90
12811;DHT22;6470;47.654;7.896;2023-07-20T07:38:54;23.30;99.90
12811;DHT22;6470;47.654;7.896;2023-07-20T07:41:19;23.40;99.90
12811;DHT22;6470;47.654;7.896;2023-07-20T07:43:46;23.40;99.90
12811;DHT22;6470;47.654;7.896;2023-07-20T07:46:12;23.60;99.90
12811;DHT22;6470;47.654;7.896;2023-07-20T07:48:37;23.60;99.90
12811;DHT22;6470;47.654;7.896;2023-07-20T07:51:03;23.70;99.90
12811;DHT22;6470;47.654;7.896;2023-07-20T07:53:29;23.00;99.90
12811;DHT22;6470;47.654;7.896;2023-07-20T07:55:54;23.90;99.90
12811;DHT22;6470;47.654;7.896;2023-07-20T07:58:21;23.10;99.90
12811;DHT22;6470;47.654;7.896;2023-07-20T08:00:46;23.40;99.90
12811;DHT22;6470;47.654;7.896;2023-07-20T08:03:13;23.30;99.90
12811;DHT22;6470;47.654;7.896;2023-07-20T08:05:39;23.20;99.90
12811;DHT22;6470;47.654;7.896;2023-07-20T08:08:04;23.10;99.90
12811;DHT22;6470;47.654;7.896;2023-07-20T08:10:30;23.40;99.90
12811;DHT22;6470;47.654;7.896;2023-07-20T08:12:56;23.30;99.90
12811;DHT22;6470;47.654;7.896;2023-07-20T08:15:22;23.90;99.90
12811;DHT22;6470;47.654;7.896;2023-07-20T08:17:48;23.00;99.90
12811;DHT22;6470;47.654;7.896;2023-07-20T08:20:15;23.40;99.90
12811;DHT22;6470;47.654;7.896;2023-07-20T08:22:42;23.30;99.90
12811;DHT22;6470;47.654;7.896;2023-07-20T08:25:09;23.30;99.90
12811;DHT22;6470;47.654;7.896;2023-07-20T08:27:35;22.90;99.90
12811;DHT22;6470;47.654;7.896;2023-07-20T08:30:02;23.70;99.90
12811;DHT22;6470;47.654;7.896;2023-07-20T08:32:28;23.10;99.90
12811;DHT22;6470;47.654;7.896;2023-07-20T08:34:54;23.40;99.90
12811;DHT22;6470;47.654;7.896;2023-07-20T08:40:45;23.70;99.90
12811;DHT22;6470;47.654;7.896;2023-07-20T08:43:12;24.20;99.90
12811;DHT22;6470;47.654;7.896;2023-07-20T08:45:39;23.40;99.90
12811;DHT22;6470;47.654;7.896;2023-07-20T08:48:06;24.10;99.90
12811;DHT22;6470;47.654;7.896;2023-07-20T08:50:32;23.60;99.90
12811;DHT22;6470;47.654;7.896;2023-07-20T08:52:59;23.40;99.90
12811;DHT22;6470;47.654;7.896;2023-07-20T08:55:26;24.70;99.90
12811;DHT22;6470;47.654;7.896;2023-07-20T08:57:57;23.90;99.90
12811;DHT22;6470;47.654;7.896;2023-07-20T09:00:24;24.40;99.90
12811;DHT22;6470;47.654;7.896;2023-07-20T09:02:52;24.10;99.90
12811;DHT22;6470;47.654;7.896;2023-07-20T09:05:18;23.50;99.90
12811;DHT22;6470;47.654;7.896;2023-07-20T09:07:44;23.80;99.90
12811;DHT22;6470;47.654;7.896;2023-07-20T09:10:11;24.00;99.90
12811;DHT22;6470;47.654;7.896;2023-07-20T09:12:43;24.40;99.90
12811;DHT22;6470;47.654;7.896;2023-07-20T09:15:10;25.10;99.90
12811;DHT22;6470;47.654;7.896;2023-07-20T09:17:36;24.80;99.90
12811;DHT22;6470;47.654;7.896;2023-07-20T09:20:08;24.90;99.90
12811;DHT22;6470;47.654;7.896;2023-07-20T09:22:38;24.70;99.90
12811;DHT22;6470;47.654;7.896;2023-07-20T09:25:11;24.80;99.90
12811;DHT22;6470;47.654;7.896;2023-07-20T09:27:38;25.40;99.90
12811;DHT22;6470;47.654;7.896;2023-07-20T09:30:05;24.70;99.90
12811;DHT22;6470;47.654;7.896;2023-07-20T09:35:07;25.30;99.90
12811;DHT22;6470;47.654;7.896;2023-07-20T09:37:37;25.20;99.90
12811;DHT22;6470;47.654;7.896;2023-07-20T09:40:06;25.20;99.90
12811;DHT22;6470;47.654;7.896;2023-07-20T09:42:35;26.10;99.90
12811;DHT22;6470;47.654;7.896;2023-07-20T09:45:02;25.80;99.90
12811;DHT22;6470;47.654;7.896;2023-07-20T09:47:28;25.70;99.90
12811;DHT22;6470;47.654;7.896;2023-07-20T09:50:00;26.30;99.90
12811;DHT22;6470;47.654;7.896;2023-07-20T09:52:26;26.20;99.90
12811;DHT22;6470;47.654;7.896;2023-07-20T09:54:52;25.60;99.90
12811;DHT22;6470;47.654;7.896;2023-07-20T09:57:21;25.90;99.90
12811;DHT22;6470;47.654;7.896;2023-07-20T09:59:47;25.60;99.90
12811;DHT22;6470;47.654;7.896;2023-07-20T10:02:33;23.50;99.90
12811;DHT22;6470;47.654;7.896;2023-07-20T10:05:02;25.90;99.90
12811;DHT22;6470;47.654;7.896;2023-07-20T10:07:30;26.50;99.90
12811;DHT22;6470;47.654;7.896;2023-07-20T10:09:56;26.30;99.90
12811;DHT22;6470;47.654;7.896;2023-07-20T10:12:25;26.60;99.90
12811;DHT22;6470;47.654;7.896;2023-07-20T10:15:05;26.70;99.90
12811;DHT22;6470;47.654;7.896;2023-07-20T10:17:36;27.20;99.90
12811;DHT22;6470;47.654;7.896;2023-07-20T10:20:04;26.50;99.90
12811;DHT22;6470;47.654;7.896;2023-07-20T10:22:35;26.70;99.90
12811;DHT22;6470;47.654;7.896;2023-07-20T10:25:01;26.40;99.90
12811;DHT22;6470;47.654;7.896;2023-07-20T10:27:28;26.10;99.90
12811;DHT22;6470;47.654;7.896;2023-07-20T10:29:54;26.20;99.90
12811;DHT22;6470;47.654;7.896;2023-07-20T10:32:20;26.60;99.90
12811;DHT22;6470;47.654;7.896;2023-07-20T10:34:51;25.60;99.90
12811;DHT22;6470;47.654;7.896;2023-07-20T10:42:50;25.80;99.90
12811;DHT22;6470;47.654;7.896;2023-07-20T10:45:18;25.10;99.90
12811;DHT22;6470;47.654;7.896;2023-07-20T10:47:47;25.40;99.90
12811;DHT22;6470;47.654;7.896;2023-07-20T10:50:13;26.20;99.90
12811;DHT22;6470;47.654;7.896;2023-07-20T10:52:42;26.10;99.90
12811;DHT22;6470;47.654;7.896;2023-07-20T10:55:17;27.40;99.90
12811;DHT22;6470;47.654;7.896;2023-07-20T10:57:42;27.20;99.90
12811;DHT22;6470;47.654;7.896;2023-07-20T11:00:10;27.70;99.90
12811;DHT22;6470;47.654;7.896;2023-07-20T11:02:47;28.50;99.90
12811;DHT22;6470;47.654;7.896;2023-07-20T11:07:57;26.80;99.90
12811;DHT22;6470;47.654;7.896;2023-07-20T11:10:23;26.70;99.90
12811;DHT22;6470;47.654;7.896;2023-07-20T11:16:02;25.90;99.90
12811;DHT22;6470;47.654;7.896;2023-07-20T11:18:33;26.10;99.90
12811;DHT22;6470;47.654;7.896;2023-07-20T11:21:09;26.40;99.90
12811;DHT22;6470;47.654;7.896;2023-07-20T11:23:38;26.40;99.90
12811;DHT22;6470;47.654;7.896;2023-07-20T11:26:03;26.60;99.90
12811;DHT22;6470;47.654;7.896;2023-07-20T11:28:30;27.00;99.90
12811;DHT22;6470;47.654;7.896;2023-07-20T11:30:56;27.20;99.90
12811;DHT22;6470;47.654;7.896;2023-07-20T11:33:23;26.30;99.90
12811;DHT22;6470;47.654;7.896;2023-07-20T11:35:49;26.80;99.90
12811;DHT22;6470;47.654;7.896;2023-07-20T11:38:16;27.00;99.90
12811;DHT22;6470;47.654;7.896;2023-07-20T11:40:46;27.00;99.90
12811;DHT22;6470;47.654;7.896;2023-07-20T11:43:15;27.50;99.90
12811;DHT22;6470;47.654;7.896;2023-07-20T11:45:41;27.30;99.90
12811;DHT22;6470;47.654;7.896;2023-07-20T11:48:07;27.10;99.90
12811;DHT22;6470;47.654;7.896;2023-07-20T11:50:39;27.00;99.90
12811;DHT22;6470;47.654;7.896;2023-07-20T11:53:05;27.60;99.90
12811;DHT22;6470;47.654;7.896;2023-07-20T11:55:32;27.10;99.90
12811;DHT22;6470;47.654;7.896;2023-07-20T11:58:04;26.80;99.90
12811;DHT22;6470;47.654;7.896;2023-07-20T12:00:31;27.50;99.90
12811;DHT22;6470;47.654;7.896;2023-07-20T12:02:57;27.20;99.90
12811;DHT22;6470;47.654;7.896;2023-07-20T12:05:23;27.10;99.80
12811;DHT22;6470;47.654;7.896;2023-07-20T12:07:49;27.30;99.90
12811;DHT22;6470;47.654;7.896;2023-07-20T12:10:26;27.20;99.90
12811;DHT22;6470;47.654;7.896;2023-07-20T12:13:01;27.60;99.90
12811;DHT22;6470;47.654;7.896;2023-07-20T12:15:30;27.70;99.90
12811;DHT22;6470;47.654;7.896;2023-07-20T12:17:59;28.50;99.90
12811;DHT22;6470;47.654;7.896;2023-07-20T12:20:58;27.10;99.90
12811;DHT22;6470;47.654;7.896;2023-07-20T12:23:24;27.60;99.90
12811;DHT22;6470;47.654;7.896;2023-07-20T12:25:50;27.80;99.90
12811;DHT22;6470;47.654;7.896;2023-07-20T12:28:19;27.60;99.90
12811;DHT22;6470;47.654;7.896;2023-07-20T12:30:45;28.00;99.90
12811;DHT22;6470;47.654;7.896;2023-07-20T12:33:11;28.90;99.20
12811;DHT22;6470;47.654;7.896;2023-07-20T12:35:41;28.00;99.00
12811;DHT22;6470;47.654;7.896;2023-07-20T12:38:06;27.80;99.20
12811;DHT22;6470;47.654;7.896;2023-07-20T12:40:33;27.50;99.40
12811;DHT22;6470;47.654;7.896;2023-07-20T12:42:59;28.40;99.90
12811;DHT22;6470;47.654;7.896;2023-07-20T12:45:24;27.90;99.90
12811;DHT22;6470;47.654;7.896;2023-07-20T12:47:55;27.70;99.10
12811;DHT22;6470;47.654;7.896;2023-07-20T12:50:21;27.50;99.40
12811;DHT22;6470;47.654;7.896;2023-07-20T12:52:47;29.10;99.90
12811;DHT22;6470;47.654;7.896;2023-07-20T12:55:12;28.80;99.40
12811;DHT22;6470;47.654;7.896;2023-07-20T12:57:38;28.30;99.50
12811;DHT22;6470;47.654;7.896;2023-07-20T13:00:05;28.00;98.30
12811;DHT22;6470;47.654;7.896;2023-07-20T13:02:32;28.10;98.70
12811;DHT22;6470;47.654;7.896;2023-07-20T13:04:58;25.20;97.90
12811;DHT22;6470;47.654;7.896;2023-07-20T13:07:32;27.50;99.00
12811;DHT22;6470;47.654;7.896;2023-07-20T13:09:59;27.40;99.20
12811;DHT22;6470;47.654;7.896;2023-07-20T13:12:30;27.30;99.60
12811;DHT22;6470;47.654;7.896;2023-07-20T13:14:56;27.60;99.90
12811;DHT22;6470;47.654;7.896;2023-07-20T13:17:23;27.80;99.00
12811;DHT22;6470;47.654;7.896;2023-07-20T13:19:48;27.90;98.00
12811;DHT22;6470;47.654;7.896;2023-07-20T13:22:14;27.80;98.20
12811;DHT22;6470;47.654;7.896;2023-07-20T13:24:41;27.80;98.50
12811;DHT22;6470;47.654;7.896;2023-07-20T13:30:29;28.30;98.00
12811;DHT22;6470;47.654;7.896;2023-07-20T13:32:55;27.60;99.00
12811;DHT22;6470;47.654;7.896;2023-07-20T13:35:21;27.70;99.40
12811;DHT22;6470;47.654;7.896;2023-07-20T13:37:47;27.80;98.40
12811;DHT22;6470;47.654;7.896;2023-07-20T13:40:14;27.60;97.80
12811;DHT22;6470;47.654;7.896;2023-07-20T13:42:42;28.30;98.40
12811;DHT22;6470;47.654;7.896;2023-07-20T13:45:08;27.80;99.70
12811;DHT22;6470;47.654;7.896;2023-07-20T13:47:34;28.10;99.90
12811;DHT22;6470;47.654;7.896;2023-07-20T13:49:59;29.30;98.80
12811;DHT22;6470;47.654;7.896;2023-07-20T13:52:27;29.00;98.80
12811;DHT22;6470;47.654;7.896;2023-07-20T13:54:53;28.90;98.90
12811;DHT22;6470;47.654;7.896;2023-07-20T13:57:19;28.30;98.90
12811;DHT22;6470;47.654;7.896;2023-07-20T13:59:45;28.30;98.80
12811;DHT22;6470;47.654;7.896;2023-07-20T14:02:10;27.90;97.90
12811;DHT22;6470;47.654;7.896;2023-07-20T14:04:36;27.80;97.30
12811;DHT22;6470;47.654;7.896;2023-07-20T14:10:24;27.60;98.20
12811;DHT22;6470;47.654;7.896;2023-07-20T14:12:50;28.40;98.60
12811;DHT22;6470;47.654;7.896;2023-07-20T14:15:16;28.00;96.80
12811;DHT22;6470;47.654;7.896;2023-07-20T14:17:43;27.20;97.20
12811;DHT22;6470;47.654;7.896;2023-07-20T14:22:35;28.00;97.60
12811;DHT22;6470;47.654;7.896;2023-07-20T14:25:00;28.50;97.20
12811;DHT22;6470;47.654;7.896;2023-07-20T14:27:26;28.30;97.00
12811;DHT22;6470;47.654;7.896;2023-07-20T14:29:52;28.40;96.40
12811;DHT22;6470;47.654;7.896;2023-07-20T14:32:18;29.20;97.30
12811;DHT22;6470;47.654;7.896;2023-07-20T14:34:44;28.90;97.60
12811;DHT22;6470;47.654;7.896;2023-07-20T14:37:10;28.60;96.70
12811;DHT22;6470;47.654;7.896;2023-07-20T14:39:35;28.60;97.90
12811;DHT22;6470;47.654;7.896;2023-07-20T14:42:01;28.80;96.60
12811;DHT22;6470;47.654;7.896;2023-07-20T14:44:29;28.80;97.20
12811;DHT22;6470;47.654;7.896;2023-07-20T14:46:54;28.50;97.40
12811;DHT22;6470;47.654;7.896;2023-07-20T14:49:21;29.40;96.30
12811;DHT22;6470;47.654;7.896;2023-07-20T14:51:47;28.40;96.10
12811;DHT22;6470;47.654;7.896;2023-07-20T14:54:13;28.60;95.60
12811;DHT22;6470;47.654;7.896;2023-07-20T14:56:39;28.00;96.20
12811;DHT22;6470;47.654;7.896;2023-07-20T14:59:06;28.60;96.50
12811;DHT22;6470;47.654;7.896;2023-07-20T15:01:32;28.10;95.50
12811;DHT22;6470;47.654;7.896;2023-07-20T15:03:58;28.60;96.00
12811;DHT22;6470;47.654;7.896;2023-07-20T15:06:26;28.70;95.80
12811;DHT22;6470;47.654;7.896;2023-07-20T15:08:52;29.40;96.00
12811;DHT22;6470;47.654;7.896;2023-07-20T15:11:18;29.20;95.20
12811;DHT22;6470;47.654;7.896;2023-07-20T15:13:44;29.10;95.80
12811;DHT22;6470;47.654;7.896;2023-07-20T15:16:09;29.50;96.60
12811;DHT22;6470;47.654;7.896;2023-07-20T15:18:36;26.00;94.90
12811;DHT22;6470;47.654;7.896;2023-07-20T15:21:02;28.40;94.90
12811;DHT22;6470;47.654;7.896;2023-07-20T15:23:27;28.70;95.50
12811;DHT22;6470;47.654;7.896;2023-07-20T15:25:53;28.80;95.00
12811;DHT22;6470;47.654;7.896;2023-07-20T15:28:19;28.80;95.10
12811;DHT22;6470;47.654;7.896;2023-07-20T15:30:45;27.70;95.60
12811;DHT22;6470;47.654;7.896;2023-07-20T15:33:11;28.10;96.00
12811;DHT22;6470;47.654;7.896;2023-07-20T15:35:36;27.70;95.40
12811;DHT22;6470;47.654;7.896;2023-07-20T15:38:02;28.10;95.20
12811;DHT22;6470;47.654;7.896;2023-07-20T15:40:27;28.60;95.80
12811;DHT22;6470;47.654;7.896;2023-07-20T15:42:53;28.60;94.50
12811;DHT22;6470;47.654;7.896;2023-07-20T15:45:20;28.80;93.90
12811;DHT22;6470;47.654;7.896;2023-07-20T15:47:46;27.60;93.80
12811;DHT22;6470;47.654;7.896;2023-07-20T15:50:12;28.30;94.90
12811;DHT22;6470;47.654;7.896;2023-07-20T15:52:37;28.10;94.70
12811;DHT22;6470;47.654;7.896;2023-07-20T15:55:05;28.00;94.80
12811;DHT22;6470;47.654;7.896;2023-07-20T15:57:30;28.10;94.70
12811;DHT22;6470;47.654;7.896;2023-07-20T15:59:56;26.90;94.10
12811;DHT22;6470;47.654;7.896;2023-07-20T16:02:22;27.30;95.20
12811;DHT22;6470;47.654;7.896;2023-07-20T16:04:47;27.80;95.50
12811;DHT22;6470;47.654;7.896;2023-07-20T16:07:14;27.40;95.50
12811;DHT22;6470;47.654;7.896;2023-07-20T16:09:42;27.60;94.90
12811;DHT22;6470;47.654;7.896;2023-07-20T16:12:08;27.30;95.30
12811;DHT22;6470;47.654;7.896;2023-07-20T16:14:34;27.10;94.80
12811;DHT22;6470;47.654;7.896;2023-07-20T16:17:00;26.90;94.90
12811;DHT22;6470;47.654;7.896;2023-07-20T16:19:27;27.10;95.60
12811;DHT22;6470;47.654;7.896;2023-07-20T16:21:52;27.40;95.90
12811;DHT22;6470;47.654;7.896;2023-07-20T16:24:18;27.90;96.20
12811;DHT22;6470;47.654;7.896;2023-07-20T16:26:44;27.10;95.80
12811;DHT22;6470;47.654;7.896;2023-07-20T16:29:10;27.50;95.70
12811;DHT22;6470;47.654;7.896;2023-07-20T16:31:36;27.80;96.00
12811;DHT22;6470;47.654;7.896;2023-07-20T16:34:03;26.90;95.80
12811;DHT22;6470;47.654;7.896;2023-07-20T16:36:28;27.70;97.00
12811;DHT22;6470;47.654;7.896;2023-07-20T16:38:54;27.20;96.20
12811;DHT22;6470;47.654;7.896;2023-07-20T16:41:20;27.20;96.60
12811;DHT22;6470;47.654;7.896;2023-07-20T16:43:45;27.00;96.30
12811;DHT22;6470;47.654;7.896;2023-07-20T16:46:11;26.60;95.80
12811;DHT22;6470;47.654;7.896;2023-07-20T16:48:37;26.90;96.10
12811;DHT22;6470;47.654;7.896;2023-07-20T16:51:03;26.60;96.50
12811;DHT22;6470;47.654;7.896;2023-07-20T16:53:29;27.50;97.00
12811;DHT22;6470;47.654;7.896;2023-07-20T16:55:55;26.70;97.00
12811;DHT22;6470;47.654;7.896;2023-07-20T16:58:26;27.20;95.60
12811;DHT22;6470;47.654;7.896;2023-07-20T17:00:59;27.00;98.60